sensor_id;sensor_type;location;lat;lon;timestamp;P1;durP1;ratioP1;P2;durP2;ratioP2
67597;SDS011;62026;39.230;9.122;2022-12-18T00:01:12;9.60;;;3.72;;
67597;SDS011;62026;39.230;9.122;2022-12-18T00:03:54;7.45;;;2.95;;
67597;SDS011;62026;39.230;9.122;2022-12-18T00:06:21;10.80;;;3.10;;
67597;SDS011;62026;39.230;9.122;2022-12-18T00:08:49;6.47;;;2.90;;
67597;SDS011;62026;39.230;9.122;2022-12-18T00:11:20;8.30;;;2.67;;
67597;SDS011;62026;39.230;9.122;2022-12-18T00:13:49;6.72;;;2.75;;
67597;SDS011;62026;39.230;9.122;2022-12-18T00:16:19;6.75;;;2.90;;
67597;SDS011;62026;39.230;9.122;2022-12-18T00:18:48;6.88;;;2.80;;
67597;SDS011;62026;39.230;9.122;2022-12-18T00:21:17;8.02;;;2.88;;
67597;SDS011;62026;39.230;9.122;2022-12-18T00:23:44;6.95;;;2.92;;
67597;SDS011;62026;39.230;9.122;2022-12-18T00:26:21;7.50;;;3.30;;
67597;SDS011;62026;39.230;9.122;2022-12-18T00:29:11;8.02;;;3.08;;
67597;SDS011;62026;39.230;9.122;2022-12-18T00:31:39;9.63;;;3.25;;
67597;SDS011;62026;39.230;9.122;2022-12-18T00:34:08;7.68;;;3.05;;
67597;SDS011;62026;39.230;9.122;2022-12-18T00:36:39;7.15;;;3.20;;
67597;SDS011;62026;39.230;9.122;2022-12-18T00:39:06;5.60;;;2.80;;
67597;SDS011;62026;39.230;9.122;2022-12-18T00:41:33;5.95;;;3.00;;
67597;SDS011;62026;39.230;9.122;2022-12-18T00:44:18;7.43;;;3.20;;
67597;SDS011;62026;39.230;9.122;2022-12-18T00:46:45;4.13;;;2.70;;
67597;SDS011;62026;39.230;9.122;2022-12-18T00:49:12;7.45;;;3.35;;
67597;SDS011;62026;39.230;9.122;2022-12-18T00:51:40;8.07;;;2.75;;
67597;SDS011;62026;39.230;9.122;2022-12-18T00:54:06;8.02;;;2.70;;
67597;SDS011;62026;39.230;9.122;2022-12-18T00:56:32;7.65;;;2.90;;
67597;SDS011;62026;39.230;9.122;2022-12-18T00:59:01;4.20;;;2.45;;
67597;SDS011;62026;39.230;9.122;2022-12-18T01:01:27;7.88;;;2.70;;
67597;SDS011;62026;39.230;9.122;2022-12-18T01:03:53;6.28;;;2.50;;
67597;SDS011;62026;39.230;9.122;2022-12-18T01:06:19;6.35;;;2.55;;
67597;SDS011;62026;39.230;9.122;2022-12-18T01:08:45;6.20;;;2.22;;
67597;SDS011;62026;39.230;9.122;2022-12-18T01:11:13;6.05;;;2.85;;
67597;SDS011;62026;39.230;9.122;2022-12-18T01:13:43;4.40;;;2.40;;
67597;SDS011;62026;39.230;9.122;2022-12-18T01:16:13;5.45;;;2.60;;
67597;SDS011;62026;39.230;9.122;2022-12-18T01:18:41;10.73;;;2.90;;
67597;SDS011;62026;39.230;9.122;2022-12-18T01:21:08;7.22;;;3.10;;
67597;SDS011;62026;39.230;9.122;2022-12-18T01:23:40;6.07;;;3.00;;
67597;SDS011;62026;39.230;9.122;2022-12-18T01:26:08;7.68;;;2.97;;
67597;SDS011;62026;39.230;9.122;2022-12-18T01:28:37;9.88;;;2.97;;
67597;SDS011;62026;39.230;9.122;2022-12-18T01:31:11;5.72;;;2.58;;
67597;SDS011;62026;39.230;9.122;2022-12-18T01:33:45;6.47;;;3.20;;
67597;SDS011;62026;39.230;9.122;2022-12-18T01:36:19;6.05;;;2.90;;
67597;SDS011;62026;39.230;9.122;2022-12-18T01:38:52;4.70;;;2.88;;
67597;SDS011;62026;39.230;9.122;2022-12-18T01:41:23;8.25;;;3.10;;
67597;SDS011;62026;39.230;9.122;2022-12-18T01:47:32;8.30;;;2.67;;
67597;SDS011;62026;39.230;9.122;2022-12-18T01:50:20;7.38;;;3.08;;
67597;SDS011;62026;39.230;9.122;2022-12-18T01:53:16;7.20;;;3.22;;
67597;SDS011;62026;39.230;9.122;2022-12-18T01:55:46;5.93;;;3.38;;
67597;SDS011;62026;39.230;9.122;2022-12-18T02:01:33;8.00;;;4.18;;
67597;SDS011;62026;39.230;9.122;2022-12-18T02:06:51;9.63;;;3.97;;
67597;SDS011;62026;39.230;9.122;2022-12-18T02:09:47;10.52;;;4.18;;
67597;SDS011;62026;39.230;9.122;2022-12-18T02:12:48;8.13;;;3.92;;
67597;SDS011;62026;39.230;9.122;2022-12-18T02:18:08;8.45;;;4.20;;
67597;SDS011;62026;39.230;9.122;2022-12-18T02:20:55;9.05;;;3.40;;
67597;SDS011;62026;39.230;9.122;2022-12-18T02:29:28;7.60;;;3.10;;
67597;SDS011;62026;39.230;9.122;2022-12-18T02:31:42;6.07;;;3.08;;
67597;SDS011;62026;39.230;9.122;2022-12-18T02:34:16;6.40;;;3.10;;
67597;SDS011;62026;39.230;9.122;2022-12-18T02:36:45;5.63;;;3.00;;
67597;SDS011;62026;39.230;9.122;2022-12-18T02:39:14;6.40;;;2.78;;
67597;SDS011;62026;39.230;9.122;2022-12-18T02:41:55;5.95;;;2.42;;
67597;SDS011;62026;39.230;9.122;2022-12-18T02:44:23;3.30;;;2.53;;
67597;SDS011;62026;39.230;9.122;2022-12-18T02:46:50;3.85;;;2.05;;
67597;SDS011;62026;39.230;9.122;2022-12-18T02:49:34;6.15;;;2.55;;
67597;SDS011;62026;39.230;9.122;2022-12-18T02:52:35;3.65;;;1.98;;
67597;SDS011;62026;39.230;9.122;2022-12-18T02:55:19;5.78;;;2.22;;
67597;SDS011;62026;39.230;9.122;2022-12-18T03:01:34;4.10;;;1.90;;
67597;SDS011;62026;39.230;9.122;2022-12-18T03:04:50;5.30;;;2.05;;
67597;SDS011;62026;39.230;9.122;2022-12-18T03:07:18;6.57;;;2.42;;
67597;SDS011;62026;39.230;9.122;2022-12-18T03:09:54;4.40;;;2.38;;
67597;SDS011;62026;39.230;9.122;2022-12-18T03:12:30;7.25;;;2.38;;
67597;SDS011;62026;39.230;9.122;2022-12-18T03:15:09;5.68;;;2.22;;
67597;SDS011;62026;39.230;9.122;2022-12-18T03:17:59;3.58;;;2.17;;
67597;SDS011;62026;39.230;9.122;2022-12-18T03:20:32;4.80;;;1.80;;
67597;SDS011;62026;39.230;9.122;2022-12-18T03:23:07;3.17;;;1.40;;
67597;SDS011;62026;39.230;9.122;2022-12-18T03:25:40;3.85;;;1.65;;
67597;SDS011;62026;39.230;9.122;2022-12-18T03:28:14;4.57;;;1.67;;
67597;SDS011;62026;39.230;9.122;2022-12-18T03:30:47;3.22;;;1.67;;
67597;SDS011;62026;39.230;9.122;2022-12-18T03:36:13;3.25;;;1.50;;
67597;SDS011;62026;39.230;9.122;2022-12-18T03:38:40;6.65;;;1.80;;
67597;SDS011;62026;39.230;9.122;2022-12-18T03:44:27;5.22;;;1.60;;
67597;SDS011;62026;39.230;9.122;2022-12-18T03:47:36;4.22;;;1.90;;
67597;SDS011;62026;39.230;9.122;2022-12-18T03:53:37;4.32;;;2.10;;
67597;SDS011;62026;39.230;9.122;2022-12-18T03:56:23;4.90;;;2.20;;
67597;SDS011;62026;39.230;9.122;2022-12-18T03:58:57;5.50;;;2.60;;
67597;SDS011;62026;39.230;9.122;2022-12-18T04:01:33;5.67;;;2.50;;
67597;SDS011;62026;39.230;9.122;2022-12-18T04:04:05;4.85;;;2.20;;
67597;SDS011;62026;39.230;9.122;2022-12-18T04:06:37;4.85;;;2.05;;
67597;SDS011;62026;39.230;9.122;2022-12-18T04:09:08;5.63;;;2.08;;
67597;SDS011;62026;39.230;9.122;2022-12-18T04:11:39;5.43;;;1.85;;
67597;SDS011;62026;39.230;9.122;2022-12-18T04:14:10;3.65;;;1.85;;
67597;SDS011;62026;39.230;9.122;2022-12-18T04:16:37;5.15;;;2.10;;
67597;SDS011;62026;39.230;9.122;2022-12-18T04:19:05;5.18;;;1.98;;
67597;SDS011;62026;39.230;9.122;2022-12-18T04:21:37;3.53;;;2.10;;
67597;SDS011;62026;39.230;9.122;2022-12-18T04:24:03;5.18;;;2.58;;
67597;SDS011;62026;39.230;9.122;2022-12-18T04:26:32;5.60;;;2.40;;
67597;SDS011;62026;39.230;9.122;2022-12-18T04:29:18;4.40;;;2.45;;
67597;SDS011;62026;39.230;9.122;2022-12-18T04:31:44;6.88;;;2.55;;
67597;SDS011;62026;39.230;9.122;2022-12-18T04:34:10;6.80;;;2.75;;
67597;SDS011;62026;39.230;9.122;2022-12-18T04:36:42;6.78;;;2.60;;
67597;SDS011;62026;39.230;9.122;2022-12-18T04:39:08;5.93;;;2.85;;
67597;SDS011;62026;39.230;9.122;2022-12-18T04:41:34;7.07;;;3.13;;
67597;SDS011;62026;39.230;9.122;2022-12-18T04:44:00;5.72;;;2.45;;
67597;SDS011;62026;39.230;9.122;2022-12-18T04:46:26;4.82;;;2.40;;
67597;SDS011;62026;39.230;9.122;2022-12-18T04:48:52;6.50;;;2.70;;
67597;SDS011;62026;39.230;9.122;2022-12-18T04:51:18;6.53;;;2.72;;
67597;SDS011;62026;39.230;9.122;2022-12-18T04:53:44;5.05;;;2.80;;
67597;SDS011;62026;39.230;9.122;2022-12-18T04:56:11;5.88;;;2.83;;
67597;SDS011;62026;39.230;9.122;2022-12-18T04:58:41;3.92;;;2.78;;
67597;SDS011;62026;39.230;9.122;2022-12-18T05:01:09;4.57;;;2.67;;
67597;SDS011;62026;39.230;9.122;2022-12-18T05:03:38;4.75;;;2.85;;
67597;SDS011;62026;39.230;9.122;2022-12-18T05:06:05;8.75;;;2.60;;
67597;SDS011;62026;39.230;9.122;2022-12-18T05:08:32;5.40;;;2.80;;
67597;SDS011;62026;39.230;9.122;2022-12-18T05:11:03;6.72;;;2.85;;
67597;SDS011;62026;39.230;9.122;2022-12-18T05:13:35;5.60;;;2.60;;
67597;SDS011;62026;39.230;9.122;2022-12-18T05:16:03;3.75;;;2.53;;
67597;SDS011;62026;39.230;9.122;2022-12-18T05:18:30;4.03;;;2.35;;
67597;SDS011;62026;39.230;9.122;2022-12-18T05:20:56;11.73;;;2.70;;
67597;SDS011;62026;39.230;9.122;2022-12-18T05:23:23;6.28;;;2.63;;
67597;SDS011;62026;39.230;9.122;2022-12-18T05:25:51;3.65;;;2.55;;
67597;SDS011;62026;39.230;9.122;2022-12-18T05:28:26;8.00;;;2.90;;
67597;SDS011;62026;39.230;9.122;2022-12-18T05:30:55;3.78;;;2.42;;
67597;SDS011;62026;39.230;9.122;2022-12-18T05:33:25;5.50;;;2.67;;
67597;SDS011;62026;39.230;9.122;2022-12-18T05:35:55;3.22;;;2.45;;
67597;SDS011;62026;39.230;9.122;2022-12-18T05:38:24;4.25;;;2.50;;
67597;SDS011;62026;39.230;9.122;2022-12-18T05:40:52;5.80;;;2.80;;
67597;SDS011;62026;39.230;9.122;2022-12-18T05:43:19;6.78;;;2.55;;
67597;SDS011;62026;39.230;9.122;2022-12-18T05:45:47;4.50;;;2.70;;
67597;SDS011;62026;39.230;9.122;2022-12-18T05:48:14;3.35;;;2.55;;
67597;SDS011;62026;39.230;9.122;2022-12-18T05:50:42;4.72;;;2.58;;
67597;SDS011;62026;39.230;9.122;2022-12-18T05:53:13;7.30;;;2.85;;
67597;SDS011;62026;39.230;9.122;2022-12-18T05:55:42;4.30;;;2.30;;
67597;SDS011;62026;39.230;9.122;2022-12-18T05:58:09;6.22;;;2.92;;
67597;SDS011;62026;39.230;9.122;2022-12-18T06:00:39;4.75;;;2.75;;
67597;SDS011;62026;39.230;9.122;2022-12-18T06:03:09;4.55;;;2.70;;
67597;SDS011;62026;39.230;9.122;2022-12-18T06:05:38;4.85;;;2.85;;
67597;SDS011;62026;39.230;9.122;2022-12-18T06:08:07;3.47;;;2.45;;
67597;SDS011;62026;39.230;9.122;2022-12-18T06:10:34;6.40;;;2.80;;
67597;SDS011;62026;39.230;9.122;2022-12-18T06:13:00;8.00;;;3.17;;
67597;SDS011;62026;39.230;9.122;2022-12-18T06:15:27;6.53;;;2.83;;
67597;SDS011;62026;39.230;9.122;2022-12-18T06:17:53;6.88;;;2.45;;
67597;SDS011;62026;39.230;9.122;2022-12-18T06:20:19;3.75;;;2.60;;
67597;SDS011;62026;39.230;9.122;2022-12-18T06:22:46;5.70;;;2.33;;
67597;SDS011;62026;39.230;9.122;2022-12-18T06:25:12;5.55;;;2.58;;
67597;SDS011;62026;39.230;9.122;2022-12-18T06:27:38;7.38;;;2.97;;
67597;SDS011;62026;39.230;9.122;2022-12-18T06:30:04;6.07;;;2.50;;
67597;SDS011;62026;39.230;9.122;2022-12-18T06:32:31;5.07;;;2.78;;
67597;SDS011;62026;39.230;9.122;2022-12-18T06:34:57;6.57;;;2.78;;
67597;SDS011;62026;39.230;9.122;2022-12-18T06:37:23;7.45;;;2.50;;
67597;SDS011;62026;39.230;9.122;2022-12-18T06:39:52;4.53;;;2.60;;
67597;SDS011;62026;39.230;9.122;2022-12-18T06:42:19;6.10;;;2.70;;
67597;SDS011;62026;39.230;9.122;2022-12-18T06:44:44;7.63;;;2.80;;
67597;SDS011;62026;39.230;9.122;2022-12-18T06:47:10;4.80;;;2.55;;
67597;SDS011;62026;39.230;9.122;2022-12-18T06:49:36;4.65;;;2.92;;
67597;SDS011;62026;39.230;9.122;2022-12-18T06:52:02;5.40;;;2.40;;
67597;SDS011;62026;39.230;9.122;2022-12-18T06:54:28;5.68;;;2.67;;
67597;SDS011;62026;39.230;9.122;2022-12-18T06:56:54;8.07;;;2.20;;
67597;SDS011;62026;39.230;9.122;2022-12-18T06:59:20;4.10;;;2.50;;
67597;SDS011;62026;39.230;9.122;2022-12-18T07:01:46;4.00;;;2.17;;
67597;SDS011;62026;39.230;9.122;2022-12-18T07:04:12;3.47;;;2.20;;
67597;SDS011;62026;39.230;9.122;2022-12-18T07:06:38;2.88;;;1.83;;
67597;SDS011;62026;39.230;9.122;2022-12-18T07:09:04;2.92;;;1.77;;
67597;SDS011;62026;39.230;9.122;2022-12-18T07:11:32;3.22;;;2.00;;
67597;SDS011;62026;39.230;9.122;2022-12-18T07:13:59;3.92;;;2.00;;
67597;SDS011;62026;39.230;9.122;2022-12-18T07:16:25;4.20;;;2.10;;
67597;SDS011;62026;39.230;9.122;2022-12-18T07:18:54;5.53;;;2.17;;
67597;SDS011;62026;39.230;9.122;2022-12-18T07:21:22;5.07;;;2.00;;
67597;SDS011;62026;39.230;9.122;2022-12-18T07:23:49;2.13;;;1.67;;
67597;SDS011;62026;39.230;9.122;2022-12-18T07:26:17;4.32;;;1.88;;
67597;SDS011;62026;39.230;9.122;2022-12-18T07:28:45;4.78;;;1.80;;
67597;SDS011;62026;39.230;9.122;2022-12-18T07:31:13;5.68;;;1.83;;
67597;SDS011;62026;39.230;9.122;2022-12-18T07:33:42;3.20;;;1.90;;
67597;SDS011;62026;39.230;9.122;2022-12-18T07:36:09;4.47;;;1.90;;
67597;SDS011;62026;39.230;9.122;2022-12-18T07:38:36;3.83;;;1.48;;
67597;SDS011;62026;39.230;9.122;2022-12-18T07:41:03;4.53;;;1.70;;
67597;SDS011;62026;39.230;9.122;2022-12-18T07:43:36;7.53;;;1.48;;
67597;SDS011;62026;39.230;9.122;2022-12-18T07:46:03;4.45;;;1.75;;
67597;SDS011;62026;39.230;9.122;2022-12-18T07:48:29;2.53;;;1.40;;
67597;SDS011;62026;39.230;9.122;2022-12-18T07:50:59;2.78;;;1.50;;
67597;SDS011;62026;39.230;9.122;2022-12-18T07:53:31;5.18;;;1.60;;
67597;SDS011;62026;39.230;9.122;2022-12-18T07:55:59;3.47;;;1.75;;
67597;SDS011;62026;39.230;9.122;2022-12-18T07:58:32;5.20;;;1.65;;
67597;SDS011;62026;39.230;9.122;2022-12-18T08:01:06;3.38;;;1.90;;
67597;SDS011;62026;39.230;9.122;2022-12-18T08:03:38;5.88;;;2.00;;
67597;SDS011;62026;39.230;9.122;2022-12-18T08:06:06;3.55;;;1.65;;
67597;SDS011;62026;39.230;9.122;2022-12-18T08:08:34;8.57;;;1.77;;
67597;SDS011;62026;39.230;9.122;2022-12-18T08:11:00;3.13;;;1.60;;
67597;SDS011;62026;39.230;9.122;2022-12-18T08:13:27;3.42;;;1.63;;
67597;SDS011;62026;39.230;9.122;2022-12-18T08:16:04;4.18;;;2.00;;
67597;SDS011;62026;39.230;9.122;2022-12-18T08:18:34;3.05;;;1.60;;
67597;SDS011;62026;39.230;9.122;2022-12-18T08:21:11;5.32;;;1.60;;
67597;SDS011;62026;39.230;9.122;2022-12-18T08:23:43;3.85;;;1.50;;
67597;SDS011;62026;39.230;9.122;2022-12-18T08:26:10;3.67;;;1.63;;
67597;SDS011;62026;39.230;9.122;2022-12-18T08:28:37;8.07;;;1.98;;
67597;SDS011;62026;39.230;9.122;2022-12-18T08:31:03;3.65;;;1.60;;
67597;SDS011;62026;39.230;9.122;2022-12-18T08:33:30;2.08;;;1.52;;
67597;SDS011;62026;39.230;9.122;2022-12-18T08:35:58;5.20;;;1.90;;
67597;SDS011;62026;39.230;9.122;2022-12-18T08:38:24;6.00;;;2.10;;
67597;SDS011;62026;39.230;9.122;2022-12-18T08:40:57;2.63;;;1.63;;
67597;SDS011;62026;39.230;9.122;2022-12-18T08:43:29;3.65;;;1.95;;
67597;SDS011;62026;39.230;9.122;2022-12-18T08:46:14;7.50;;;2.22;;
67597;SDS011;62026;39.230;9.122;2022-12-18T08:48:40;4.95;;;2.15;;
67597;SDS011;62026;39.230;9.122;2022-12-18T08:51:06;6.10;;;2.00;;
67597;SDS011;62026;39.230;9.122;2022-12-18T08:53:34;3.70;;;1.83;;
67597;SDS011;62026;39.230;9.122;2022-12-18T08:56:01;4.78;;;1.70;;
67597;SDS011;62026;39.230;9.122;2022-12-18T08:58:28;4.55;;;1.70;;
67597;SDS011;62026;39.230;9.122;2022-12-18T09:00:59;4.95;;;1.70;;
67597;SDS011;62026;39.230;9.122;2022-12-18T09:03:30;3.17;;;1.75;;
67597;SDS011;62026;39.230;9.122;2022-12-18T09:05:56;3.78;;;2.00;;
67597;SDS011;62026;39.230;9.122;2022-12-18T09:08:22;4.85;;;1.48;;
67597;SDS011;62026;39.230;9.122;2022-12-18T09:10:49;4.93;;;1.55;;
67597;SDS011;62026;39.230;9.122;2022-12-18T09:13:16;3.33;;;1.85;;
67597;SDS011;62026;39.230;9.122;2022-12-18T09:15:49;4.22;;;2.05;;
67597;SDS011;62026;39.230;9.122;2022-12-18T09:18:18;4.70;;;1.90;;
67597;SDS011;62026;39.230;9.122;2022-12-18T09:20:47;8.07;;;2.00;;
67597;SDS011;62026;39.230;9.122;2022-12-18T09:23:13;3.90;;;1.80;;
67597;SDS011;62026;39.230;9.122;2022-12-18T09:25:39;4.07;;;2.10;;
67597;SDS011;62026;39.230;9.122;2022-12-18T09:28:06;7.90;;;3.00;;
67597;SDS011;62026;39.230;9.122;2022-12-18T09:30:40;5.68;;;3.22;;
67597;SDS011;62026;39.230;9.122;2022-12-18T09:33:17;10.13;;;3.72;;
67597;SDS011;62026;39.230;9.122;2022-12-18T09:35:43;12.52;;;4.65;;
67597;SDS011;62026;39.230;9.122;2022-12-18T09:38:11;9.43;;;4.00;;
67597;SDS011;62026;39.230;9.122;2022-12-18T09:40:45;5.72;;;3.45;;
67597;SDS011;62026;39.230;9.122;2022-12-18T09:43:26;6.05;;;3.42;;
67597;SDS011;62026;39.230;9.122;2022-12-18T09:46:10;3.75;;;2.60;;
67597;SDS011;62026;39.230;9.122;2022-12-18T09:48:45;4.85;;;2.40;;
67597;SDS011;62026;39.230;9.122;2022-12-18T09:51:36;3.95;;;2.20;;
67597;SDS011;62026;39.230;9.122;2022-12-18T09:54:26;5.75;;;3.65;;
67597;SDS011;62026;39.230;9.122;2022-12-18T09:57:21;9.20;;;4.45;;
67597;SDS011;62026;39.230;9.122;2022-12-18T10:00:03;6.90;;;3.58;;
67597;SDS011;62026;39.230;9.122;2022-12-18T10:02:51;11.52;;;2.35;;
67597;SDS011;62026;39.230;9.122;2022-12-18T10:28:10;8.73;;;4.50;;
67597;SDS011;62026;39.230;9.122;2022-12-18T10:30:40;12.07;;;4.43;;
67597;SDS011;62026;39.230;9.122;2022-12-18T10:33:18;9.35;;;5.10;;
67597;SDS011;62026;39.230;9.122;2022-12-18T10:35:48;12.90;;;5.85;;
67597;SDS011;62026;39.230;9.122;2022-12-18T10:40:55;12.75;;;6.60;;
67597;SDS011;62026;39.230;9.122;2022-12-18T10:43:24;11.85;;;6.20;;
67597;SDS011;62026;39.230;9.122;2022-12-18T10:51:21;6.38;;;3.10;;
67597;SDS011;62026;39.230;9.122;2022-12-18T10:53:52;5.30;;;2.78;;
67597;SDS011;62026;39.230;9.122;2022-12-18T10:56:25;7.05;;;2.60;;
67597;SDS011;62026;39.230;9.122;2022-12-18T10:59:03;4.68;;;2.38;;
67597;SDS011;62026;39.230;9.122;2022-12-18T11:01:54;6.75;;;3.03;;
67597;SDS011;62026;39.230;9.122;2022-12-18T11:07:06;6.78;;;2.50;;
67597;SDS011;62026;39.230;9.122;2022-12-18T11:09:39;4.53;;;2.25;;
67597;SDS011;62026;39.230;9.122;2022-12-18T11:12:14;4.45;;;2.28;;
67597;SDS011;62026;39.230;9.122;2022-12-18T11:14:47;3.25;;;2.20;;
67597;SDS011;62026;39.230;9.122;2022-12-18T11:17:33;4.07;;;2.25;;
67597;SDS011;62026;39.230;9.122;2022-12-18T11:20:01;4.00;;;2.28;;
67597;SDS011;62026;39.230;9.122;2022-12-18T11:22:57;5.53;;;2.13;;
67597;SDS011;62026;39.230;9.122;2022-12-18T11:25:31;4.80;;;1.90;;
67597;SDS011;62026;39.230;9.122;2022-12-18T11:30:49;5.68;;;2.15;;
67597;SDS011;62026;39.230;9.122;2022-12-18T11:33:33;4.40;;;2.10;;
67597;SDS011;62026;39.230;9.122;2022-12-18T11:36:01;7.40;;;2.10;;
67597;SDS011;62026;39.230;9.122;2022-12-18T11:41:14;4.28;;;1.67;;
67597;SDS011;62026;39.230;9.122;2022-12-18T11:43:51;3.22;;;1.58;;
67597;SDS011;62026;39.230;9.122;2022-12-18T11:46:32;3.90;;;1.80;;
67597;SDS011;62026;39.230;9.122;2022-12-18T11:49:11;5.30;;;1.65;;
67597;SDS011;62026;39.230;9.122;2022-12-18T11:54:41;3.40;;;1.40;;
67597;SDS011;62026;39.230;9.122;2022-12-18T12:11:30;5.88;;;2.22;;
67597;SDS011;62026;39.230;9.122;2022-12-18T12:16:57;3.38;;;1.60;;
67597;SDS011;62026;39.230;9.122;2022-12-18T12:19:56;4.57;;;1.33;;
67597;SDS011;62026;39.230;9.122;2022-12-18T12:34:06;4.68;;;1.50;;
67597;SDS011;62026;39.230;9.122;2022-12-18T12:39:43;4.97;;;2.75;;
67597;SDS011;62026;39.230;9.122;2022-12-18T12:45:26;3.60;;;1.65;;
67597;SDS011;62026;39.230;9.122;2022-12-18T12:48:04;4.50;;;1.40;;
67597;SDS011;62026;39.230;9.122;2022-12-18T12:53:06;2.75;;;1.15;;
67597;SDS011;62026;39.230;9.122;2022-12-18T12:58:16;2.58;;;1.40;;
67597;SDS011;62026;39.230;9.122;2022-12-18T13:04:15;4.35;;;2.00;;
67597;SDS011;62026;39.230;9.122;2022-12-18T13:07:20;4.82;;;1.65;;
67597;SDS011;62026;39.230;9.122;2022-12-18T13:12:53;3.55;;;1.13;;
67597;SDS011;62026;39.230;9.122;2022-12-18T13:15:29;3.20;;;1.30;;
67597;SDS011;62026;39.230;9.122;2022-12-18T13:18:28;4.57;;;1.50;;
67597;SDS011;62026;39.230;9.122;2022-12-18T13:36:46;15.07;;;8.10;;
67597;SDS011;62026;39.230;9.122;2022-12-18T13:41:43;7.93;;;4.28;;
67597;SDS011;62026;39.230;9.122;2022-12-18T13:46:52;7.22;;;3.63;;
67597;SDS011;62026;39.230;9.122;2022-12-18T13:49:38;5.95;;;2.80;;
67597;SDS011;62026;39.230;9.122;2022-12-18T13:52:18;3.78;;;1.70;;
67597;SDS011;62026;39.230;9.122;2022-12-18T13:54:52;7.18;;;1.42;;
67597;SDS011;62026;39.230;9.122;2022-12-18T13:57:28;5.55;;;1.63;;
67597;SDS011;62026;39.230;9.122;2022-12-18T14:02:54;2.40;;;1.15;;
67597;SDS011;62026;39.230;9.122;2022-12-18T14:05:22;3.33;;;1.15;;
67597;SDS011;62026;39.230;9.122;2022-12-18T14:08:15;3.00;;;0.90;;
67597;SDS011;62026;39.230;9.122;2022-12-18T14:10:44;2.42;;;0.75;;
67597;SDS011;62026;39.230;9.122;2022-12-18T14:13:29;2.40;;;0.98;;
67597;SDS011;62026;39.230;9.122;2022-12-18T14:16:01;1.38;;;0.85;;
67597;SDS011;62026;39.230;9.122;2022-12-18T14:18:46;1.55;;;1.00;;
67597;SDS011;62026;39.230;9.122;2022-12-18T14:26:46;2.50;;;0.90;;
67597;SDS011;62026;39.230;9.122;2022-12-18T14:32:12;3.25;;;1.00;;
67597;SDS011;62026;39.230;9.122;2022-12-18T14:34:46;2.55;;;0.80;;
67597;SDS011;62026;39.230;9.122;2022-12-18T14:37:22;3.55;;;0.90;;
67597;SDS011;62026;39.230;9.122;2022-12-18T14:39:55;3.40;;;1.00;;
67597;SDS011;62026;39.230;9.122;2022-12-18T14:42:27;3.35;;;1.08;;
67597;SDS011;62026;39.230;9.122;2022-12-18T14:50:54;4.28;;;1.10;;
67597;SDS011;62026;39.230;9.122;2022-12-18T14:53:48;2.63;;;1.15;;
67597;SDS011;62026;39.230;9.122;2022-12-18T14:56:30;3.05;;;1.00;;
67597;SDS011;62026;39.230;9.122;2022-12-18T14:59:00;2.67;;;1.17;;
67597;SDS011;62026;39.230;9.122;2022-12-18T15:01:39;2.72;;;0.90;;
67597;SDS011;62026;39.230;9.122;2022-12-18T15:04:26;1.92;;;1.08;;
67597;SDS011;62026;39.230;9.122;2022-12-18T15:07:13;4.25;;;1.23;;
67597;SDS011;62026;39.230;9.122;2022-12-18T15:09:43;3.28;;;1.38;;
67597;SDS011;62026;39.230;9.122;2022-12-18T15:13:27;3.67;;;1.30;;
67597;SDS011;62026;39.230;9.122;2022-12-18T15:23:20;2.28;;;1.13;;
67597;SDS011;62026;39.230;9.122;2022-12-18T15:25:49;2.33;;;1.00;;
67597;SDS011;62026;39.230;9.122;2022-12-18T15:28:38;2.88;;;1.30;;
67597;SDS011;62026;39.230;9.122;2022-12-18T15:33:41;3.50;;;1.20;;
67597;SDS011;62026;39.230;9.122;2022-12-18T15:36:25;5.65;;;1.67;;
67597;SDS011;62026;39.230;9.122;2022-12-18T15:38:55;3.78;;;1.50;;
67597;SDS011;62026;39.230;9.122;2022-12-18T15:41:22;5.38;;;1.90;;
67597;SDS011;62026;39.230;9.122;2022-12-18T15:43:50;6.72;;;1.50;;
67597;SDS011;62026;39.230;9.122;2022-12-18T15:46:24;4.07;;;1.33;;
67597;SDS011;62026;39.230;9.122;2022-12-18T15:48:52;3.53;;;1.35;;
67597;SDS011;62026;39.230;9.122;2022-12-18T15:51:22;5.18;;;1.33;;
67597;SDS011;62026;39.230;9.122;2022-12-18T15:53:54;7.15;;;2.58;;
67597;SDS011;62026;39.230;9.122;2022-12-18T15:56:22;9.57;;;2.70;;
67597;SDS011;62026;39.230;9.122;2022-12-18T15:59:08;7.70;;;2.10;;
67597;SDS011;62026;39.230;9.122;2022-12-18T16:01:47;7.60;;;2.28;;
67597;SDS011;62026;39.230;9.122;2022-12-18T16:04:18;10.30;;;1.80;;
67597;SDS011;62026;39.230;9.122;2022-12-18T16:06:46;4.25;;;1.92;;
67597;SDS011;62026;39.230;9.122;2022-12-18T16:09:13;4.45;;;1.80;;
67597;SDS011;62026;39.230;9.122;2022-12-18T16:11:39;3.10;;;1.60;;
67597;SDS011;62026;39.230;9.122;2022-12-18T16:14:23;4.22;;;1.95;;
67597;SDS011;62026;39.230;9.122;2022-12-18T16:16:53;5.37;;;1.97;;
67597;SDS011;62026;39.230;9.122;2022-12-18T16:19:23;2.60;;;1.38;;
67597;SDS011;62026;39.230;9.122;2022-12-18T16:21:50;5.13;;;1.80;;
67597;SDS011;62026;39.230;9.122;2022-12-18T16:24:23;5.13;;;2.10;;
67597;SDS011;62026;39.230;9.122;2022-12-18T16:26:56;5.95;;;2.08;;
67597;SDS011;62026;39.230;9.122;2022-12-18T16:29:24;4.82;;;1.60;;
67597;SDS011;62026;39.230;9.122;2022-12-18T16:31:56;4.22;;;1.70;;
67597;SDS011;62026;39.230;9.122;2022-12-18T16:34:24;6.38;;;2.20;;
67597;SDS011;62026;39.230;9.122;2022-12-18T16:39:27;5.63;;;2.13;;
67597;SDS011;62026;39.230;9.122;2022-12-18T16:41:53;5.10;;;2.45;;
67597;SDS011;62026;39.230;9.122;2022-12-18T16:44:19;5.70;;;2.58;;
67597;SDS011;62026;39.230;9.122;2022-12-18T16:46:46;9.00;;;2.35;;
67597;SDS011;62026;39.230;9.122;2022-12-18T16:49:13;4.50;;;1.85;;
67597;SDS011;62026;39.230;9.122;2022-12-18T16:51:41;4.85;;;1.77;;
67597;SDS011;62026;39.230;9.122;2022-12-18T16:54:08;4.60;;;1.60;;
67597;SDS011;62026;39.230;9.122;2022-12-18T16:56:35;4.40;;;1.52;;
67597;SDS011;62026;39.230;9.122;2022-12-18T16:59:02;3.78;;;1.23;;
67597;SDS011;62026;39.230;9.122;2022-12-18T17:01:29;3.08;;;1.25;;
67597;SDS011;62026;39.230;9.122;2022-12-18T17:03:57;2.78;;;1.40;;
67597;SDS011;62026;39.230;9.122;2022-12-18T17:06:27;4.95;;;1.55;;
67597;SDS011;62026;39.230;9.122;2022-12-18T17:08:57;3.83;;;1.63;;
67597;SDS011;62026;39.230;9.122;2022-12-18T17:11:30;6.53;;;1.50;;
67597;SDS011;62026;39.230;9.122;2022-12-18T17:13:58;3.78;;;1.50;;
67597;SDS011;62026;39.230;9.122;2022-12-18T17:16:24;5.88;;;1.92;;
67597;SDS011;62026;39.230;9.122;2022-12-18T17:18:52;3.90;;;1.42;;
67597;SDS011;62026;39.230;9.122;2022-12-18T17:21:18;3.03;;;1.38;;
67597;SDS011;62026;39.230;9.122;2022-12-18T17:23:44;5.38;;;1.77;;
67597;SDS011;62026;39.230;9.122;2022-12-18T17:26:11;3.30;;;1.65;;
67597;SDS011;62026;39.230;9.122;2022-12-18T17:28:38;7.05;;;3.80;;
67597;SDS011;62026;39.230;9.122;2022-12-18T17:31:10;14.02;;;8.10;;
67597;SDS011;62026;39.230;9.122;2022-12-18T17:33:41;17.63;;;9.25;;
67597;SDS011;62026;39.230;9.122;2022-12-18T17:36:08;18.70;;;10.27;;
67597;SDS011;62026;39.230;9.122;2022-12-18T17:38:34;21.75;;;13.48;;
67597;SDS011;62026;39.230;9.122;2022-12-18T17:41:01;27.83;;;15.98;;
67597;SDS011;62026;39.230;9.122;2022-12-18T17:43:29;24.45;;;14.60;;
67597;SDS011;62026;39.230;9.122;2022-12-18T17:45:55;26.83;;;15.98;;
67597;SDS011;62026;39.230;9.122;2022-12-18T17:48:27;32.97;;;16.35;;
67597;SDS011;62026;39.230;9.122;2022-12-18T17:50:59;28.70;;;16.08;;
67597;SDS011;62026;39.230;9.122;2022-12-18T17:53:31;27.38;;;15.50;;
67597;SDS011;62026;39.230;9.122;2022-12-18T17:55:58;18.33;;;12.15;;
67597;SDS011;62026;39.230;9.122;2022-12-18T17:58:27;24.40;;;14.02;;
67597;SDS011;62026;39.230;9.122;2022-12-18T18:00:53;25.75;;;14.48;;
67597;SDS011;62026;39.230;9.122;2022-12-18T18:03:20;27.90;;;15.18;;
67597;SDS011;62026;39.230;9.122;2022-12-18T18:05:46;43.03;;;22.48;;